ENNE

Norne Fpso Oilp

Norne Fpso Oilp, Norway
METAR ENNE 182320Z AUTO 26045G57KT 9999NDV BKN016/// 13/10 Q0988 W///S6
Observed Flight Rules
Aug-18 @ 23:20 UTC (23 minutes ago)
Wind Clouds
260° at 45 knots
 Gusting to 57 knots
  • Broken at 1,600' AGL
Temperatures Readings
Current 13°C / 55°F
Dewpoint 10°C / 50°F
Humidity 82%
Altimeter 29.17" Hg
Pressure 988 hPa
Elevation 10
METAR ENNE 182320Z AUTO 26045G57KT 9999NDV BKN016/// 13/10 Q0988 W///S6
Observed Flight Rules
Aug-18 @ 23:20 UTC
(23 minutes ago)
Wind
260° at 45 knots
 Gusting to 57 knots
Clouds
  • Broken at 1,600' AGL
Temperature Dewpoint
13°C / 55°F 10°C / 50°F
Humidity Altimeter Pressure
82% 29.17" Hg 988 hPa